createdAt,value
2023-05-08T00:00:00.412Z,14.33
2023-05-08T00:02:03.419Z,14.34
2023-05-08T00:04:06.511Z,14.31
2023-05-08T00:06:09.803Z,14.34
2023-05-08T00:08:13.961Z,14.26
2023-05-08T00:10:16.718Z,14.26
2023-05-08T00:12:19.544Z,14.26
2023-05-08T00:14:22.248Z,14.32
2023-05-08T00:16:25.041Z,14.27
2023-05-08T00:18:27.885Z,14.26
2023-05-08T00:20:30.618Z,14.24
2023-05-08T00:22:33.323Z,14.27
2023-05-08T00:24:37.433Z,14.28
2023-05-08T00:26:41.964Z,14.30
2023-05-08T00:28:44.728Z,14.30
2023-05-08T00:30:47.510Z,14.42
2023-05-08T00:32:50.228Z,14.45
2023-05-08T00:34:53.027Z,14.40
2023-05-08T00:36:57.510Z,14.45
2023-05-08T00:39:00.302Z,14.38
2023-05-08T00:41:04.818Z,14.34
2023-05-08T00:43:07.591Z,14.35
2023-05-08T00:45:11.186Z,14.41
2023-05-08T00:47:13.953Z,14.41
2023-05-08T00:49:17.339Z,14.30
2023-05-08T00:51:20.414Z,14.25
2023-05-08T00:53:24.082Z,14.25
2023-05-08T00:55:26.894Z,14.35
2023-05-08T00:57:35.677Z,14.21
2023-05-08T00:59:41.535Z,14.28
2023-05-08T01:01:45.078Z,14.35
2023-05-08T01:03:48.109Z,14.23
2023-05-08T01:05:51.036Z,14.37
2023-05-08T01:07:53.730Z,14.25
2023-05-08T01:09:56.460Z,14.26
2023-05-08T01:12:17.013Z,14.46
2023-05-08T01:14:26.483Z,14.42
2023-05-08T01:16:41.249Z,14.42
2023-05-08T01:18:48.829Z,14.45
2023-05-08T01:21:01.613Z,14.32
2023-05-08T01:23:33.749Z,14.26
2023-05-08T01:25:56.890Z,14.28
2023-05-08T01:28:22.471Z,14.16
2023-05-08T01:31:04.120Z,14.35
2023-05-08T01:33:15.409Z,14.41
2023-05-08T01:35:25.072Z,14.39
2023-05-08T01:37:33.611Z,14.23
2023-05-08T01:39:48.050Z,14.16
2023-05-08T01:41:58.422Z,14.12
2023-05-08T01:44:12.486Z,14.04
2023-05-08T01:46:20.598Z,14.03
2023-05-08T01:48:29.351Z,14.02
2023-05-08T01:50:35.619Z,13.89
2023-05-08T01:52:44.520Z,13.93
2023-05-08T01:54:52.678Z,14.03
2023-05-08T01:56:58.808Z,13.97
2023-05-08T01:59:04.954Z,14.03
2023-05-08T02:01:09.840Z,14.14
2023-05-08T02:03:14.934Z,14.05
2023-05-08T02:05:20.549Z,14.11
2023-05-08T02:07:25.038Z,14.16
2023-05-08T02:09:29.744Z,14.13
2023-05-08T02:11:34.027Z,14.05
2023-05-08T02:13:38.361Z,14.06
2023-05-08T02:15:43.083Z,14.21
2023-05-08T02:17:50.056Z,14.13
2023-05-08T02:19:56.064Z,14.06
2023-05-08T02:22:01.796Z,14.05
2023-05-08T02:24:05.798Z,14.06
2023-05-08T02:26:10.816Z,13.96
2023-05-08T02:28:13.673Z,14.01
2023-05-08T02:30:18.749Z,14.16
2023-05-08T02:32:23.283Z,14.23
2023-05-08T02:34:27.496Z,14.26
2023-05-08T02:36:31.862Z,14.18
2023-05-08T02:38:39.697Z,14.22
2023-05-08T02:40:47.158Z,14.10
2023-05-08T02:42:50.702Z,14.18
2023-05-08T02:44:53.435Z,14.21
2023-05-08T02:47:00.081Z,14.16
2023-05-08T02:49:08.207Z,14.12
2023-05-08T02:51:19.522Z,14.08
2023-05-08T02:53:32.121Z,14.02
2023-05-08T02:55:43.684Z,14.02
2023-05-08T02:57:54.694Z,14.04
2023-05-08T03:00:01.904Z,14.10
2023-05-08T03:02:11.604Z,14.19
2023-05-08T03:04:23.680Z,14.07
2023-05-08T03:06:28.469Z,14.02
2023-05-08T03:08:35.238Z,14.03
2023-05-08T03:10:41.350Z,14.12
2023-05-08T03:12:47.547Z,14.23
2023-05-08T03:14:56.250Z,14.13
2023-05-08T03:17:01.752Z,14.13
2023-05-08T03:19:09.474Z,14.04
2023-05-08T03:21:14.103Z,14.07
2023-05-08T03:23:19.453Z,14.20
2023-05-08T03:25:22.903Z,14.20
2023-05-08T03:27:29.791Z,14.17
2023-05-08T03:29:34.452Z,14.13
2023-05-08T03:31:38.229Z,14.10
2023-05-08T03:33:44.276Z,14.00
2023-05-08T03:35:48.110Z,14.05
2023-05-08T03:37:51.437Z,14.16
2023-05-08T03:39:54.387Z,14.16
2023-05-08T03:41:58.068Z,14.09
2023-05-08T03:44:03.758Z,14.01
2023-05-08T03:46:07.106Z,13.96
2023-05-08T03:48:10.940Z,13.93
2023-05-08T03:50:14.610Z,14.02
2023-05-08T03:52:17.578Z,13.93
2023-05-08T03:54:20.268Z,13.94
2023-05-08T03:56:25.297Z,13.93
2023-05-08T03:58:33.972Z,13.92
2023-05-08T04:00:52.873Z,13.87
2023-05-08T04:03:04.105Z,13.84
2023-05-08T04:05:18.742Z,13.80
2023-05-08T04:07:28.747Z,13.77
2023-05-08T04:09:38.387Z,13.79
2023-05-08T04:11:49.009Z,13.81
2023-05-08T04:13:58.599Z,13.79
2023-05-08T04:16:13.552Z,13.80
2023-05-08T04:18:19.789Z,13.70
2023-05-08T04:20:25.514Z,13.77
2023-05-08T04:22:30.550Z,13.74
2023-05-08T04:24:38.243Z,13.74
2023-05-08T04:26:42.234Z,13.67
2023-05-08T04:28:46.681Z,13.65
2023-05-08T04:30:50.585Z,13.75
2023-05-08T04:32:55.609Z,13.86
2023-05-08T04:35:00.170Z,13.83
2023-05-08T04:37:03.637Z,13.82
2023-05-08T04:39:06.494Z,13.85
2023-05-08T04:41:09.911Z,13.76
2023-05-08T04:43:12.888Z,13.78
2023-05-08T04:45:15.979Z,13.78
2023-05-08T04:47:19.031Z,13.88
2023-05-08T04:49:23.122Z,13.98
2023-05-08T04:51:27.996Z,13.94
2023-05-08T04:53:33.634Z,13.85
2023-05-08T04:55:36.328Z,13.90
2023-05-08T04:57:39.256Z,13.92
2023-05-08T04:59:42.033Z,14.04
2023-05-08T05:01:46.450Z,13.93
2023-05-08T05:03:49.265Z,13.94
2023-05-08T05:05:59.996Z,13.87
2023-05-08T05:08:04.149Z,13.86
2023-05-08T05:10:07.470Z,13.95
2023-05-08T05:12:10.216Z,13.94
2023-05-08T05:14:13.000Z,13.91
2023-05-08T05:16:15.715Z,14.05
2023-05-08T05:18:18.772Z,14.13
2023-05-08T05:20:21.711Z,14.17
2023-05-08T05:22:25.910Z,14.12
2023-05-08T05:24:28.660Z,14.21
2023-05-08T05:26:31.408Z,14.24
2023-05-08T05:28:34.156Z,14.25
2023-05-08T05:30:37.061Z,14.22
2023-05-08T05:32:39.854Z,14.30
2023-05-08T05:34:42.847Z,14.29
2023-05-08T05:36:45.663Z,14.30
2023-05-08T05:38:49.760Z,14.27
2023-05-08T05:40:52.687Z,14.23
2023-05-08T05:42:55.394Z,14.18
2023-05-08T05:44:59.095Z,14.23
2023-05-08T05:47:01.833Z,14.18
2023-05-08T05:49:04.584Z,14.23
2023-05-08T05:51:07.387Z,14.13
2023-05-08T05:53:10.579Z,14.31
2023-05-08T05:55:15.016Z,14.14
2023-05-08T05:57:17.986Z,14.19
2023-05-08T05:59:20.745Z,14.30
2023-05-08T06:01:24.638Z,14.25
2023-05-08T06:03:27.518Z,14.27
2023-05-08T06:05:30.257Z,14.14
2023-05-08T06:07:33.492Z,14.04
2023-05-08T06:09:36.510Z,14.18
2023-05-08T06:11:40.674Z,14.13
2023-05-08T06:13:43.858Z,14.13
2023-05-08T06:15:46.814Z,14.23
2023-05-08T06:17:49.577Z,14.27
2023-05-08T06:19:56.484Z,14.29
2023-05-08T06:21:59.197Z,14.35
2023-05-08T06:24:01.962Z,14.10
2023-05-08T06:26:05.071Z,14.14
2023-05-08T06:28:09.309Z,14.09
2023-05-08T06:30:13.125Z,14.10
2023-05-08T06:32:15.888Z,14.11
2023-05-08T06:34:18.668Z,14.09
2023-05-08T06:36:21.495Z,14.10
2023-05-08T06:38:24.353Z,14.18
2023-05-08T06:40:27.114Z,14.13
2023-05-08T06:42:29.907Z,14.06
2023-05-08T06:44:34.148Z,14.18
2023-05-08T06:46:36.943Z,14.31
2023-05-08T06:48:39.819Z,14.58
2023-05-08T06:50:43.282Z,14.46
2023-05-08T06:52:46.091Z,14.35
2023-05-08T06:54:48.869Z,14.23
2023-05-08T06:56:53.242Z,14.26
2023-05-08T06:59:04.977Z,14.20
2023-05-08T07:01:12.384Z,14.30
2023-05-08T07:03:15.592Z,14.51
2023-05-08T07:05:19.961Z,14.48
2023-05-08T07:07:23.017Z,14.66
2023-05-08T07:09:25.960Z,14.59
2023-05-08T07:11:28.721Z,14.74
2023-05-08T07:13:31.659Z,14.64
2023-05-08T07:15:34.413Z,14.53
2023-05-08T07:17:38.844Z,14.55
2023-05-08T07:19:41.622Z,14.51
2023-05-08T07:21:46.228Z,14.44
2023-05-08T07:23:51.658Z,14.79
2023-05-08T07:25:54.491Z,14.60
2023-05-08T07:27:58.184Z,14.56
2023-05-08T07:30:04.438Z,14.74
2023-05-08T07:32:08.615Z,14.81
2023-05-08T07:34:12.760Z,14.79
2023-05-08T07:36:15.585Z,14.74
2023-05-08T07:38:18.279Z,14.54
2023-05-08T07:40:21.085Z,14.53
2023-05-08T07:42:23.975Z,14.35
2023-05-08T07:44:26.946Z,14.21
2023-05-08T07:46:29.901Z,14.04
2023-05-08T07:48:32.696Z,14.09
2023-05-08T07:50:37.193Z,14.06
2023-05-08T07:52:39.996Z,14.09
2023-05-08T07:54:43.955Z,14.20
2023-05-08T07:56:46.961Z,14.13
2023-05-08T07:58:49.907Z,14.06
2023-05-08T08:00:52.654Z,14.07
2023-05-08T08:02:55.487Z,14.27
2023-05-08T08:04:58.346Z,14.43
2023-05-08T08:07:02.481Z,14.32
2023-05-08T08:09:05.229Z,14.48
2023-05-08T08:11:08.144Z,14.37
2023-05-08T08:13:10.941Z,14.39
2023-05-08T08:15:13.832Z,14.40
2023-05-08T08:17:16.715Z,14.73
2023-05-08T08:19:19.533Z,14.52
2023-05-08T08:21:22.371Z,14.63
2023-05-08T08:23:26.521Z,14.91
2023-05-08T08:25:29.331Z,14.90
2023-05-08T08:27:32.278Z,15.14
2023-05-08T08:29:35.040Z,14.86
2023-05-08T08:31:37.912Z,14.98
2023-05-08T08:33:40.794Z,14.83
2023-05-08T08:35:43.594Z,14.85
2023-05-08T08:37:46.529Z,15.05
2023-05-08T08:39:50.709Z,14.98
2023-05-08T08:41:53.404Z,14.73
2023-05-08T08:43:56.331Z,14.81
2023-05-08T08:46:00.859Z,14.89
2023-05-08T08:48:04.633Z,14.82
2023-05-08T08:50:11.960Z,14.83
2023-05-08T08:52:23.693Z,14.62
2023-05-08T08:54:30.311Z,14.72
2023-05-08T08:56:35.254Z,14.81
2023-05-08T08:58:43.431Z,14.74
2023-05-08T09:00:47.566Z,14.90
2023-05-08T09:02:50.601Z,14.76
2023-05-08T09:04:53.463Z,14.64
2023-05-08T09:06:58.129Z,15.07
2023-05-08T09:09:02.179Z,15.00
2023-05-08T09:11:05.176Z,15.24
2023-05-08T09:13:09.350Z,15.12
2023-05-08T09:15:12.831Z,15.20
2023-05-08T09:17:15.768Z,15.39
2023-05-08T09:19:19.120Z,15.24
2023-05-08T09:21:23.469Z,15.44
2023-05-08T09:23:26.382Z,15.28
2023-05-08T09:25:42.396Z,15.39
2023-05-08T09:27:45.149Z,15.39
2023-05-08T09:30:00.062Z,15.08
2023-05-08T09:32:02.863Z,15.15
2023-05-08T09:34:06.101Z,15.15
2023-05-08T09:36:26.767Z,15.13
2023-05-08T09:38:37.341Z,15.33
2023-05-08T09:40:40.081Z,15.08
2023-05-08T09:42:42.896Z,15.20
2023-05-08T09:44:47.587Z,15.48
2023-05-08T09:46:51.767Z,15.57
2023-05-08T09:48:55.809Z,15.40
2023-05-08T09:51:07.211Z,15.13
2023-05-08T09:53:10.175Z,15.38
2023-05-08T09:55:12.894Z,15.44
2023-05-08T09:57:17.048Z,15.57
2023-05-08T09:59:27.596Z,15.65
2023-05-08T10:01:31.983Z,15.63
2023-05-08T10:03:49.249Z,16.04
2023-05-08T10:05:52.543Z,16.02
2023-05-08T10:07:55.349Z,15.74
2023-05-08T10:10:02.950Z,15.75
2023-05-08T10:12:07.144Z,15.48
2023-05-08T10:14:10.299Z,15.32
2023-05-08T10:16:16.655Z,15.86
2023-05-08T10:18:20.398Z,15.76
2023-05-08T10:20:30.306Z,16.29
2023-05-08T10:22:37.221Z,15.94
2023-05-08T10:24:42.579Z,16.11
2023-05-08T10:27:06.213Z,15.78
2023-05-08T10:29:18.379Z,15.33
2023-05-08T10:31:23.122Z,15.56
2023-05-08T10:33:31.222Z,15.49
2023-05-08T10:35:35.622Z,15.60
2023-05-08T10:37:42.355Z,16.07
2023-05-08T10:39:46.070Z,15.81
2023-05-08T10:41:50.067Z,15.89
2023-05-08T10:43:53.983Z,15.68
2023-05-08T10:45:58.514Z,15.79
2023-05-08T10:48:09.903Z,15.61
2023-05-08T10:50:23.402Z,15.87
2023-05-08T10:52:35.118Z,16.27
2023-05-08T10:54:49.282Z,16.42
2023-05-08T10:56:51.931Z,16.44
2023-05-08T10:58:57.587Z,16.49
2023-05-08T11:01:14.477Z,16.43
2023-05-08T11:03:30.459Z,16.50
2023-05-08T11:05:46.644Z,16.32
2023-05-08T11:07:57.549Z,16.25
2023-05-08T11:10:14.077Z,16.27
2023-05-08T11:12:27.028Z,16.18
2023-05-08T11:14:30.912Z,16.62
2023-05-08T11:17:05.915Z,16.66
2023-05-08T11:19:17.870Z,16.48
2023-05-08T11:21:22.535Z,16.42
2023-05-08T11:23:28.142Z,16.25
2023-05-08T11:25:43.574Z,16.04
2023-05-08T11:28:13.934Z,16.20
2023-05-08T11:30:25.668Z,16.42
2023-05-08T11:32:58.378Z,16.04
2023-05-08T11:35:01.226Z,16.46
2023-05-08T11:37:04.000Z,16.27
2023-05-08T11:39:12.645Z,16.29
2023-05-08T11:41:23.240Z,16.22
2023-05-08T11:43:28.091Z,16.30
2023-05-08T11:45:32.131Z,16.28
2023-05-08T11:47:39.747Z,16.37
2023-05-08T11:49:42.943Z,16.56
2023-05-08T11:51:47.730Z,16.29
2023-05-08T11:53:50.476Z,16.66
2023-05-08T11:55:55.482Z,16.53
2023-05-08T11:57:58.367Z,16.74
2023-05-08T12:00:06.318Z,16.62
2023-05-08T12:02:09.861Z,16.31
2023-05-08T12:04:14.213Z,16.67
2023-05-08T12:06:20.027Z,17.03
2023-05-08T12:08:22.873Z,17.09
2023-05-08T12:10:26.032Z,17.05
2023-05-08T12:12:38.965Z,16.54
2023-05-08T12:14:41.772Z,16.74
2023-05-08T12:16:44.719Z,16.88
2023-05-08T12:18:50.198Z,16.67
2023-05-08T12:20:53.620Z,17.07
2023-05-08T12:22:56.429Z,16.80
2023-05-08T12:24:59.208Z,17.50
2023-05-08T12:27:01.999Z,17.99
2023-05-08T12:29:08.608Z,18.04
2023-05-08T12:31:12.320Z,18.32
2023-05-08T12:33:16.014Z,18.13
2023-05-08T12:35:19.136Z,18.36
2023-05-08T12:37:25.623Z,18.12
2023-05-08T12:39:28.357Z,18.71
2023-05-08T12:41:31.099Z,18.04
2023-05-08T12:43:38.538Z,17.91
2023-05-08T12:45:44.039Z,18.29
2023-05-08T12:47:47.994Z,18.33
2023-05-08T12:49:50.708Z,18.70
2023-05-08T12:51:53.929Z,18.89
2023-05-08T12:53:56.614Z,18.54
2023-05-08T12:56:02.045Z,17.72
2023-05-08T12:58:06.908Z,18.56
2023-05-08T13:00:10.838Z,18.52
2023-05-08T13:02:17.276Z,18.82
2023-05-08T13:04:20.297Z,18.62
2023-05-08T13:06:23.567Z,18.14
2023-05-08T13:08:32.320Z,18.64
2023-05-08T13:10:48.750Z,18.79
2023-05-08T13:12:52.327Z,18.18
2023-05-08T13:14:55.144Z,17.99
2023-05-08T13:16:57.999Z,18.35
2023-05-08T13:19:02.189Z,18.17
2023-05-08T13:21:05.129Z,17.81
2023-05-08T13:23:08.128Z,18.11
2023-05-08T13:25:10.954Z,17.44
2023-05-08T13:27:14.723Z,17.47
2023-05-08T13:29:17.696Z,17.46
2023-05-08T13:31:20.706Z,17.69
2023-05-08T13:33:23.615Z,17.77
2023-05-08T13:35:28.506Z,17.38
2023-05-08T13:37:31.391Z,17.70
2023-05-08T13:39:37.213Z,17.91
2023-05-08T13:41:40.039Z,17.69
2023-05-08T13:43:42.786Z,17.32
2023-05-08T13:45:45.581Z,17.26
2023-05-08T13:47:49.890Z,17.24
2023-05-08T13:49:52.618Z,17.26
2023-05-08T13:51:57.415Z,17.54
2023-05-08T13:54:00.222Z,17.71
2023-05-08T13:56:03.195Z,17.14
2023-05-08T13:58:06.009Z,17.56
2023-05-08T14:00:10.247Z,17.97
2023-05-08T14:02:13.290Z,17.50
2023-05-08T14:04:16.102Z,17.86
2023-05-08T14:06:20.478Z,17.76
2023-05-08T14:08:24.654Z,17.83
2023-05-08T14:10:27.324Z,17.95
2023-05-08T14:12:30.304Z,18.18
2023-05-08T14:14:34.494Z,17.54
2023-05-08T14:16:37.614Z,17.66
2023-05-08T14:18:40.352Z,17.51
2023-05-08T14:20:45.379Z,17.20
2023-05-08T14:24:56.670Z,17.54
2023-05-08T14:27:01.957Z,17.41
2023-05-08T14:29:04.946Z,17.40
2023-05-08T14:31:07.785Z,17.27
2023-05-08T14:33:10.644Z,17.53
2023-05-08T14:35:14.336Z,17.07
2023-05-08T14:37:17.746Z,17.28
2023-05-08T14:39:20.597Z,17.27
2023-05-08T14:41:28.759Z,17.30
2023-05-08T14:43:31.580Z,17.34
2023-05-08T14:45:34.386Z,17.32
2023-05-08T14:47:37.172Z,17.29
2023-05-08T14:49:40.005Z,17.17
2023-05-08T14:51:42.837Z,17.03
2023-05-08T14:53:45.719Z,17.09
2023-05-08T14:55:48.631Z,16.91
2023-05-08T14:57:52.875Z,16.94
2023-05-08T14:59:56.784Z,16.97
2023-05-08T15:01:59.597Z,16.85
2023-05-08T15:04:02.483Z,16.79
2023-05-08T15:06:05.914Z,16.86
2023-05-08T15:08:09.691Z,16.95
2023-05-08T15:10:12.618Z,16.88
2023-05-08T15:12:15.318Z,16.91
2023-05-08T15:14:19.401Z,16.93
2023-05-08T15:16:22.157Z,16.89
2023-05-08T15:18:28.383Z,16.84
2023-05-08T15:20:31.163Z,17.03
2023-05-08T15:22:33.887Z,17.01
2023-05-08T15:24:36.658Z,17.02
2023-05-08T15:26:39.350Z,17.09
2023-05-08T15:28:42.048Z,17.02
2023-05-08T15:30:47.861Z,17.08
2023-05-08T15:32:50.910Z,17.31
2023-05-08T15:34:54.230Z,17.29
2023-05-08T15:36:56.978Z,17.27
2023-05-08T15:38:59.647Z,17.36
2023-05-08T15:41:02.367Z,17.38
2023-05-08T15:43:05.200Z,17.17
2023-05-08T15:45:09.009Z,17.33
2023-05-08T15:47:13.095Z,17.39
2023-05-08T15:49:15.826Z,17.53
2023-05-08T15:51:18.814Z,17.47
2023-05-08T15:53:21.659Z,17.49
2023-05-08T15:55:24.409Z,17.66
2023-05-08T15:57:27.871Z,17.67
2023-05-08T15:59:30.609Z,17.67
2023-05-08T16:01:33.277Z,17.62
2023-05-08T16:03:37.621Z,17.71
2023-05-08T16:05:40.546Z,17.72
2023-05-08T16:07:43.775Z,17.84
2023-05-08T16:09:46.638Z,17.78
2023-05-08T16:11:49.423Z,17.75
2023-05-08T16:13:52.227Z,17.51
2023-05-08T16:15:55.123Z,17.45
2023-05-08T16:17:57.863Z,17.64
2023-05-08T16:20:03.826Z,17.67
2023-05-08T16:22:06.911Z,17.66
2023-05-08T16:24:09.699Z,17.70
2023-05-08T16:26:14.040Z,17.71
2023-05-08T16:28:16.986Z,17.72
2023-05-08T16:30:20.012Z,17.53
2023-05-08T16:32:22.849Z,17.70
2023-05-08T16:34:25.716Z,17.70
2023-05-08T16:36:30.164Z,17.32
2023-05-08T16:38:33.149Z,17.22
2023-05-08T16:40:35.923Z,17.48
2023-05-08T16:42:39.152Z,17.31
2023-05-08T16:44:41.838Z,17.39
2023-05-08T16:46:44.615Z,17.40
2023-05-08T16:48:48.750Z,17.28
2023-05-08T16:50:51.529Z,17.30
2023-05-08T16:52:57.031Z,17.29
2023-05-08T16:54:59.734Z,17.07
2023-05-08T16:57:02.779Z,17.36
2023-05-08T16:59:06.977Z,17.24
2023-05-08T17:01:10.073Z,17.17
2023-05-08T17:03:13.005Z,17.10
2023-05-08T17:05:15.867Z,17.09
2023-05-08T17:07:19.129Z,17.23
2023-05-08T17:09:25.226Z,17.29
2023-05-08T17:11:27.924Z,16.94
2023-05-08T17:13:30.767Z,17.05
2023-05-08T17:15:33.514Z,16.86
2023-05-08T17:17:36.285Z,17.06
2023-05-08T17:19:38.993Z,16.79
2023-05-08T17:21:41.778Z,16.97
2023-05-08T17:23:45.633Z,16.94
2023-05-08T17:25:57.163Z,16.91
2023-05-08T17:28:01.384Z,16.74
2023-05-08T17:30:04.769Z,16.81
2023-05-08T17:32:07.732Z,16.81
2023-05-08T17:34:10.601Z,16.69
2023-05-08T17:36:13.356Z,16.53
2023-05-08T17:38:16.248Z,16.75
2023-05-08T17:40:19.032Z,16.47
2023-05-08T17:42:23.184Z,16.57
2023-05-08T17:44:25.963Z,16.51
2023-05-08T17:46:28.693Z,16.48
2023-05-08T17:48:31.482Z,16.41
2023-05-08T17:50:34.920Z,16.26
2023-05-08T17:52:37.716Z,16.24
2023-05-08T17:54:40.612Z,16.18
2023-05-08T17:56:43.434Z,16.27
2023-05-08T17:58:47.814Z,16.16
2023-05-08T18:00:50.575Z,16.17
2023-05-08T18:02:53.468Z,16.35
2023-05-08T18:04:56.296Z,16.21
2023-05-08T18:07:01.314Z,16.16
2023-05-08T18:09:04.115Z,16.18
2023-05-08T18:11:06.874Z,16.00
2023-05-08T18:13:09.805Z,16.03
2023-05-08T18:15:14.389Z,16.03
2023-05-08T18:17:19.299Z,15.89
2023-05-08T18:19:22.100Z,15.86
2023-05-08T18:21:24.837Z,15.79
2023-05-08T18:23:27.567Z,15.76
2023-05-08T18:25:30.374Z,15.88
2023-05-08T18:27:34.293Z,15.70
2023-05-08T18:29:37.043Z,15.68
2023-05-08T18:31:41.228Z,15.63
2023-05-08T18:33:44.007Z,15.64
2023-05-08T18:35:46.884Z,15.81
2023-05-08T18:37:49.606Z,15.58
2023-05-08T18:39:52.531Z,15.61
2023-05-08T18:41:55.303Z,15.64
2023-05-08T18:44:01.340Z,15.62
2023-05-08T18:46:09.541Z,15.57
2023-05-08T18:48:13.693Z,15.70
2023-05-08T18:50:16.642Z,15.46
2023-05-08T18:52:19.442Z,15.49
2023-05-08T18:54:23.789Z,15.31
2023-05-08T18:56:26.980Z,15.26
2023-05-08T18:58:29.894Z,15.23
2023-05-08T19:00:32.858Z,15.36
2023-05-08T19:02:35.871Z,15.43
2023-05-08T19:04:41.033Z,15.33
2023-05-08T19:06:43.912Z,15.30
2023-05-08T19:08:47.336Z,15.33
2023-05-08T19:10:50.209Z,15.31
2023-05-08T19:12:52.974Z,15.23
2023-05-08T19:14:55.948Z,15.21
2023-05-08T19:16:58.773Z,15.18
2023-05-08T19:19:01.483Z,15.09
2023-05-08T19:21:06.498Z,15.03
2023-05-08T19:23:09.280Z,15.01
2023-05-08T19:25:12.650Z,14.99
2023-05-08T19:27:15.415Z,14.99
2023-05-08T19:29:18.135Z,15.00
2023-05-08T19:31:20.947Z,14.88
2023-05-08T19:33:23.730Z,14.85
2023-05-08T19:35:26.509Z,14.91
2023-05-08T19:37:31.128Z,14.91
2023-05-08T19:39:33.872Z,14.92
2023-05-08T19:41:36.672Z,15.03
2023-05-08T19:43:39.448Z,14.92
2023-05-08T19:45:42.360Z,14.89
2023-05-08T19:47:48.195Z,14.81
2023-05-08T19:49:51.222Z,14.86
2023-05-08T19:51:54.044Z,14.94
2023-05-08T19:53:58.122Z,14.89
2023-05-08T19:56:00.842Z,15.02
2023-05-08T19:58:03.649Z,15.14
2023-05-08T20:00:07.679Z,14.99
2023-05-08T20:02:10.490Z,14.82
2023-05-08T20:04:13.368Z,14.77
2023-05-08T20:06:16.221Z,14.86
2023-05-08T20:08:19.296Z,15.04
2023-05-08T20:10:24.023Z,14.98
2023-05-08T20:12:26.915Z,14.81
2023-05-08T20:14:29.687Z,14.61
2023-05-08T20:16:32.537Z,14.72
2023-05-08T20:18:35.616Z,14.56
2023-05-08T20:20:38.385Z,14.68
2023-05-08T20:22:41.109Z,14.62
2023-05-08T20:24:43.887Z,14.47
2023-05-08T20:26:48.235Z,14.46
2023-05-08T20:28:52.110Z,14.44
2023-05-08T20:30:54.867Z,14.39
2023-05-08T20:33:04.349Z,14.41
2023-05-08T20:35:07.969Z,14.42
2023-05-08T20:37:10.826Z,14.39
2023-05-08T20:39:13.836Z,14.51
2023-05-08T20:41:16.933Z,14.40
2023-05-08T20:43:21.109Z,14.35
2023-05-08T20:45:23.821Z,14.50
2023-05-08T20:47:26.569Z,14.37
2023-05-08T20:49:29.327Z,14.38
2023-05-08T20:51:32.579Z,14.59
2023-05-08T20:53:35.383Z,14.50
2023-05-08T20:55:38.123Z,14.38
2023-05-08T20:57:40.888Z,14.38
2023-05-08T20:59:47.137Z,14.23
2023-05-08T21:01:50.261Z,14.19
2023-05-08T21:03:53.197Z,14.14
2023-05-08T21:05:56.295Z,14.14
2023-05-08T21:08:02.122Z,14.13
2023-05-08T21:10:05.377Z,14.10
2023-05-08T21:12:08.423Z,14.13
2023-05-08T21:14:11.171Z,14.11
2023-05-08T21:16:15.398Z,14.11
2023-05-08T21:18:18.318Z,14.10
2023-05-08T21:20:21.370Z,14.14
2023-05-08T21:22:24.115Z,14.09
2023-05-08T21:24:26.963Z,14.12
2023-05-08T21:26:29.889Z,14.16
2023-05-08T21:28:32.717Z,14.17
2023-05-08T21:30:35.430Z,14.17
2023-05-08T21:32:39.699Z,14.25
2023-05-08T21:34:42.582Z,14.17
2023-05-08T21:36:45.344Z,14.14
2023-05-08T21:38:48.259Z,14.25
2023-05-08T21:40:51.108Z,14.27
2023-05-08T21:42:53.964Z,14.17
2023-05-08T21:44:56.947Z,14.26
2023-05-08T21:46:59.844Z,14.19
2023-05-08T21:49:04.336Z,14.13
2023-05-08T21:51:07.945Z,14.12
2023-05-08T21:53:10.884Z,14.13
2023-05-08T21:55:13.983Z,14.14
2023-05-08T21:57:17.005Z,14.19
2023-05-08T21:59:19.718Z,14.16
2023-05-08T22:01:22.477Z,14.17
2023-05-08T22:03:25.592Z,14.18
2023-05-08T22:05:29.855Z,14.18
2023-05-08T22:07:32.690Z,14.27
2023-05-08T22:09:35.739Z,14.19
2023-05-08T22:11:38.582Z,14.17
2023-05-08T22:13:41.520Z,14.18
2023-05-08T22:15:44.379Z,14.12
2023-05-08T22:17:47.563Z,14.13
2023-05-08T22:19:50.359Z,14.13
2023-05-08T22:21:54.536Z,14.14
2023-05-08T22:23:57.454Z,14.17
2023-05-08T22:26:00.185Z,14.12
2023-05-08T22:28:02.889Z,14.14
2023-05-08T22:30:06.718Z,14.25
2023-05-08T22:32:09.726Z,14.18
2023-05-08T22:34:12.808Z,14.14
2023-05-08T22:36:15.921Z,14.21
2023-05-08T22:38:20.214Z,14.13
2023-05-08T22:40:24.403Z,14.12
2023-05-08T22:42:27.529Z,14.14
2023-05-08T22:44:30.564Z,14.10
2023-05-08T22:46:34.227Z,14.17
2023-05-08T22:48:37.592Z,14.13
2023-05-08T22:50:40.576Z,14.08
2023-05-08T22:52:44.156Z,14.15
2023-05-08T22:54:48.401Z,14.10
2023-05-08T22:56:51.318Z,14.13
2023-05-08T22:58:55.131Z,14.12
2023-05-08T23:00:59.447Z,14.14
2023-05-08T23:03:02.259Z,14.19
2023-05-08T23:05:06.708Z,14.16
2023-05-08T23:07:09.389Z,14.03
2023-05-08T23:09:12.801Z,14.09
2023-05-08T23:11:17.240Z,14.02
2023-05-08T23:13:20.219Z,13.93
2023-05-08T23:15:23.194Z,13.96
2023-05-08T23:17:26.376Z,14.00
2023-05-08T23:19:29.211Z,13.97
2023-05-08T23:21:32.205Z,13.95
2023-05-08T23:23:35.506Z,14.02
2023-05-08T23:25:38.491Z,13.94
2023-05-08T23:27:42.905Z,13.92
2023-05-08T23:29:46.006Z,13.98
2023-05-08T23:31:48.998Z,13.93
2023-05-08T23:33:52.469Z,13.92
2023-05-08T23:35:56.812Z,13.89
2023-05-08T23:37:59.552Z,13.91
2023-05-08T23:40:02.298Z,13.84
2023-05-08T23:42:05.296Z,13.86
2023-05-08T23:44:10.073Z,13.86
2023-05-08T23:46:13.720Z,13.93
2023-05-08T23:48:17.180Z,13.84
2023-05-08T23:50:19.954Z,13.81
2023-05-08T23:52:23.132Z,13.73
2023-05-08T23:54:26.090Z,13.65
2023-05-08T23:56:28.762Z,13.63
2023-05-08T23:58:31.579Z,13.77
